Time;durP1;ratioP1;P1;durP2;ratioP2;P2;SDS_P1;SDS_P2;PMS_P1;PMS_P2;Temp;Humidity;BMP_temperature;BMP_pressure;BME280_temperature;BME280_humidity;BME280_pressure;Samples;Min_cycle;Max_cycle;Signal;HPM_P1;HPM_P2
2021/05/21 00:01:15;;;;;;;1.67;1.57;;;14.20;52.30;;;;;;4958051;29;20167;-88
2021/05/21 00:03:41;;;;;;;1.80;1.80;;;14.10;52.30;;;;;;4940822;29;20225;-87
2021/05/21 00:06:07;;;;;;;1.60;1.60;;;14.10;52.10;;;;;;4957713;29;20210;-87
2021/05/21 00:08:32;;;;;;;1.67;1.40;;;14.10;52.30;;;;;;4940612;29;20214;-87
2021/05/21 00:10:58;;;;;;;2.60;1.20;;;14.10;52.30;;;;;;4940674;29;20458;-87
2021/05/21 00:13:23;;;;;;;1.73;1.63;;;14.10;52.50;;;;;;4957872;28;20584;-88
2021/05/21 00:15:49;;;;;;;1.20;1.20;;;14.00;52.50;;;;;;4940565;29;20549;-88
2021/05/21 00:18:15;;;;;;;3.40;2.00;;;14.00;52.50;;;;;;4957815;29;20229;-88
2021/05/21 00:20:40;;;;;;;1.60;1.57;;;14.00;52.80;;;;;;4940742;29;20581;-88
2021/05/21 00:23:06;;;;;;;1.20;1.20;;;14.00;52.50;;;;;;4940596;29;20196;-88
2021/05/21 00:25:31;;;;;;;1.57;1.57;;;14.00;52.60;;;;;;4957655;29;20229;-88
2021/05/21 00:27:57;;;;;;;1.60;1.50;;;14.00;52.50;;;;;;4940668;29;20183;-88
2021/05/21 00:30:22;;;;;;;1.87;1.70;;;13.90;52.70;;;;;;4957480;28;20210;-88
2021/05/21 00:32:48;;;;;;;1.60;1.60;;;13.90;52.70;;;;;;4957569;29;20167;-88
2021/05/21 00:35:13;;;;;;;1.50;1.40;;;13.90;52.60;;;;;;4957548;29;20186;-87
2021/05/21 00:37:39;;;;;;;1.70;1.70;;;13.90;53.00;;;;;;4940295;29;20181;-88
2021/05/21 00:40:05;;;;;;;2.10;1.60;;;13.80;52.80;;;;;;4957306;29;20174;-88
2021/05/21 00:42:32;;;;;;;1.17;1.17;;;13.80;53.10;;;;;;4957267;29;20218;-88
2021/05/21 00:44:58;;;;;;;1.87;1.50;;;13.80;53.20;;;;;;4957307;28;20429;-88
2021/05/21 00:47:26;;;;;;;1.65;1.65;;;13.80;53.20;;;;;;4940046;29;20415;-88
2021/05/21 00:49:52;;;;;;;1.60;1.33;;;13.70;53.20;;;;;;4939504;29;20222;-88
2021/05/21 00:52:18;;;;;;;1.83;1.83;;;13.70;53.20;;;;;;4957211;29;20453;-88
2021/05/21 00:54:46;;;;;;;1.80;1.57;;;13.70;53.30;;;;;;4956979;29;20170;-88
2021/05/21 00:57:13;;;;;;;1.20;1.20;;;13.60;53.50;;;;;;4957019;28;20764;-87
2021/05/21 00:59:38;;;;;;;1.33;1.33;;;13.60;53.40;;;;;;4957097;28;20446;-88
2021/05/21 01:02:06;;;;;;;1.30;1.20;;;13.70;53.50;;;;;;4939942;29;20470;-88
2021/05/21 01:04:32;;;;;;;1.33;1.20;;;13.60;53.70;;;;;;4956931;29;20579;-88
2021/05/21 01:06:57;;;;;;;1.10;1.10;;;13.60;53.80;;;;;;4939540;29;20501;-88
2021/05/21 01:09:24;;;;;;;1.60;1.50;;;13.50;53.70;;;;;;4939470;29;20602;-88
2021/05/21 01:11:49;;;;;;;1.10;1.10;;;13.50;53.80;;;;;;4956853;29;20175;-87
2021/05/21 01:14:15;;;;;;;1.00;1.00;;;13.50;53.70;;;;;;4956680;29;20472;-87
2021/05/21 01:16:40;;;;;;;1.70;1.40;;;13.50;53.70;;;;;;4956707;29;20268;-87
2021/05/21 01:19:06;;;;;;;1.33;1.23;;;13.50;53.90;;;;;;4956849;29;20179;-87
2021/05/21 01:21:33;;;;;;;1.10;1.10;;;13.40;54.00;;;;;;4956605;29;20634;-87
2021/05/21 01:23:58;;;;;;;1.50;1.50;;;13.40;54.10;;;;;;4956548;28;20175;-87
2021/05/21 01:26:25;;;;;;;1.30;1.30;;;13.50;54.30;;;;;;4939350;29;20772;-87
2021/05/21 01:28:52;;;;;;;1.27;1.27;;;13.50;54.00;;;;;;4956402;29;20206;-87
2021/05/21 01:31:18;;;;;;;1.20;1.20;;;13.50;54.00;;;;;;4956544;28;20418;-87
2021/05/21 01:33:44;;;;;;;1.27;1.27;;;13.40;53.90;;;;;;4939247;29;20415;-87
2021/05/21 01:36:10;;;;;;;1.07;1.07;;;14.20;54.50;;;;;;4939169;29;20434;-87
2021/05/21 01:38:37;;;;;;;2.43;2.23;;;13.40;54.00;;;;;;4939126;29;20213;-87
2021/05/21 01:41:02;;;;;;;1.43;1.43;;;13.40;54.00;;;;;;4956318;28;20171;-87
2021/05/21 01:43:29;;;;;;;1.30;1.07;;;13.40;54.10;;;;;;4956262;29;20525;-88
2021/05/21 01:45:54;;;;;;;1.30;1.27;;;13.40;54.10;;;;;;4956179;29;20179;-88
2021/05/21 01:48:20;;;;;;;1.00;0.90;;;13.40;54.20;;;;;;4956160;28;20497;-88
2021/05/21 01:50:46;;;;;;;1.00;1.00;;;13.40;54.10;;;;;;4955979;28;20289;-87
2021/05/21 01:53:11;;;;;;;1.27;1.27;;;13.40;54.20;;;;;;4938827;29;20622;-88
2021/05/21 01:55:37;;;;;;;1.20;1.20;;;13.40;54.20;;;;;;4956010;28;20233;-87
2021/05/21 01:58:03;;;;;;;1.90;1.40;;;13.30;54.10;;;;;;4938851;29;20229;-88
2021/05/21 02:00:29;;;;;;;0.80;0.80;;;13.40;54.20;;;;;;4955348;28;20642;-88
2021/05/21 02:02:54;;;;;;;1.43;1.30;;;13.40;54.20;;;;;;4955748;28;20413;-87
2021/05/21 02:05:20;;;;;;;1.43;1.20;;;13.40;54.30;;;;;;4938640;29;20178;-87
2021/05/21 02:07:48;;;;;;;1.63;1.53;;;13.40;54.00;;;;;;4955518;29;20233;-87
2021/05/21 02:10:14;;;;;;;1.10;1.10;;;13.40;54.20;;;;;;4955947;28;20203;-87
2021/05/21 02:12:43;;;;;;;1.13;0.87;;;13.40;54.20;;;;;;4955616;29;20545;-87
2021/05/21 02:15:10;;;;;;;3.60;2.83;;;13.40;54.10;;;;;;4938599;29;20434;-87
2021/05/21 02:17:36;;;;;;;1.00;1.00;;;13.40;54.10;;;;;;4938273;29;20414;-87
2021/05/21 02:20:04;;;;;;;1.40;1.40;;;13.50;53.90;;;;;;4955631;29;20426;-87
2021/05/21 02:22:31;;;;;;;1.00;1.00;;;13.40;54.10;;;;;;4938490;29;20328;-87
2021/05/21 02:25:00;;;;;;;0.80;0.80;;;13.50;53.90;;;;;;4955599;29;20929;-87
2021/05/21 02:27:27;;;;;;;1.27;1.20;;;13.50;54.10;;;;;;4955485;28;20419;-87
2021/05/21 02:29:53;;;;;;;1.10;1.10;;;13.50;54.00;;;;;;4955355;29;20473;-88
2021/05/21 02:32:19;;;;;;;1.10;1.10;;;13.50;54.00;;;;;;4955654;29;20970;-88
2021/05/21 02:34:44;;;;;;;1.13;1.07;;;13.50;53.90;;;;;;4955442;28;20418;-88
2021/05/21 02:37:10;;;;;;;0.93;0.93;;;13.50;53.90;;;;;;4955204;29;20171;-88
2021/05/21 02:39:36;;;;;;;1.43;0.90;;;13.60;54.00;;;;;;4955355;28;20533;-88
2021/05/21 02:42:02;;;;;;;1.80;1.20;;;13.50;53.80;;;;;;4938055;29;20182;-88
2021/05/21 02:44:27;;;;;;;1.03;1.03;;;13.50;54.00;;;;;;4955338;29;20166;-87
2021/05/21 02:46:53;;;;;;;1.00;1.00;;;13.50;54.10;;;;;;4937929;29;20414;-87
2021/05/21 02:49:21;;;;;;;1.30;1.30;;;13.40;54.20;;;;;;4955026;29;20558;-87
2021/05/21 02:51:52;;;;;;;1.13;1.10;;;13.40;54.20;;;;;;4937788;29;20186;-87
2021/05/21 02:54:18;;;;;;;1.20;1.20;;;13.40;54.20;;;;;;4938030;29;20569;-87
2021/05/21 02:56:44;;;;;;;1.30;1.20;;;13.40;54.10;;;;;;4955101;29;20426;-87
2021/05/21 02:59:09;;;;;;;1.40;1.40;;;13.40;54.20;;;;;;4955220;29;20768;-87
2021/05/21 03:01:35;;;;;;;1.43;1.20;;;13.50;54.50;;;;;;4954977;29;20175;-88
2021/05/21 03:04:01;;;;;;;1.07;0.97;;;13.40;54.20;;;;;;4954837;29;20174;-87
2021/05/21 03:06:26;;;;;;;1.70;1.10;;;13.40;54.30;;;;;;4954786;29;20210;-88
2021/05/21 03:08:55;;;;;;;1.90;1.10;;;13.50;54.30;;;;;;4955043;29;20453;-88
2021/05/21 03:11:20;;;;;;;0.90;0.90;;;13.60;54.30;;;;;;4937592;29;20174;-88
2021/05/21 03:13:46;;;;;;;0.97;0.97;;;13.60;54.10;;;;;;4954743;29;20819;-87
2021/05/21 03:16:12;;;;;;;0.90;0.90;;;13.60;54.10;;;;;;4937600;29;20262;-88
2021/05/21 03:18:37;;;;;;;1.07;1.07;;;13.50;53.90;;;;;;4954728;29;20419;-88
2021/05/21 03:21:03;;;;;;;1.00;1.00;;;13.60;54.00;;;;;;4954955;29;20167;-87
2021/05/21 03:23:29;;;;;;;1.67;1.00;;;13.50;54.00;;;;;;4954910;28;20241;-88
2021/05/21 03:25:55;;;;;;;1.70;0.90;;;12.60;53.50;;;;;;4937607;29;20411;-85
2021/05/21 03:28:20;;;;;;;0.87;0.87;;;13.40;54.00;;;;;;4955010;28;20229;-87
2021/05/21 03:30:46;;;;;;;2.10;1.00;;;13.40;54.10;;;;;;4954697;28;20261;-86
2021/05/21 03:33:12;;;;;;;1.10;1.10;;;13.40;54.30;;;;;;4954730;28;20174;-87
2021/05/21 03:35:38;;;;;;;3.80;1.37;;;13.40;54.20;;;;;;4954635;28;20183;-87
2021/05/21 03:38:05;;;;;;;1.43;1.20;;;13.30;54.40;;;;;;4937273;29;20257;-87
2021/05/21 03:40:32;;;;;;;1.10;1.10;;;13.30;54.60;;;;;;4937711;29;20480;-87
2021/05/21 03:42:58;;;;;;;1.37;1.37;;;13.30;54.60;;;;;;4937591;29;20494;-86
2021/05/21 03:45:24;;;;;;;1.20;1.20;;;13.20;54.70;;;;;;4954586;29;20453;-87
2021/05/21 03:47:49;;;;;;;1.83;1.10;;;13.30;54.90;;;;;;4954741;28;20291;-87
2021/05/21 03:50:18;;;;;;;1.20;1.10;;;13.20;55.00;;;;;;4937668;29;20623;-87
2021/05/21 03:52:44;;;;;;;1.00;1.00;;;13.20;55.00;;;;;;4954547;29;20167;-88
2021/05/21 03:55:10;;;;;;;2.00;1.10;;;13.20;55.10;;;;;;4937144;29;20476;-88
2021/05/21 03:57:37;;;;;;;1.33;1.33;;;13.20;55.00;;;;;;4938827;29;20171;-87
2021/05/21 04:00:08;;;;;;;1.23;1.23;;;13.20;55.20;;;;;;4937419;29;20502;-88
2021/05/21 04:02:33;;;;;;;1.23;1.10;;;13.20;55.00;;;;;;4950120;29;20951;-87
2021/05/21 04:04:59;;;;;;;1.83;1.63;;;13.20;55.30;;;;;;4954378;29;20469;-88
2021/05/21 04:07:24;;;;;;;1.37;1.20;;;13.20;55.20;;;;;;4954365;29;20274;-88
2021/05/21 04:09:50;;;;;;;1.73;1.13;;;13.30;54.90;;;;;;4954686;29;20202;-87
2021/05/21 04:12:15;;;;;;;0.90;0.90;;;13.40;55.00;;;;;;4937164;29;20179;-87
2021/05/21 04:14:41;;;;;;;1.37;1.13;;;13.50;54.70;;;;;;4954933;29;20170;-86
2021/05/21 04:17:07;;;;;;;0.93;0.93;;;13.50;54.70;;;;;;4937146;29;20221;-87
2021/05/21 04:19:32;;;;;;;1.63;1.00;;;13.60;54.60;;;;;;4937152;29;20185;-87
2021/05/21 04:21:58;;;;;;;0.93;0.93;;;13.70;54.40;;;;;;4937080;29;20179;-87
2021/05/21 04:24:23;;;;;;;1.53;1.53;;;13.70;54.30;;;;;;4955474;28;20175;-88
2021/05/21 04:26:49;;;;;;;0.90;0.90;;;13.70;54.30;;;;;;4957608;29;20178;-87
2021/05/21 04:29:15;;;;;;;2.43;1.57;;;13.70;54.30;;;;;;4957610;28;20210;-86
2021/05/21 04:31:40;;;;;;;1.27;1.17;;;13.70;54.40;;;;;;4957499;29;20174;-87
2021/05/21 04:34:06;;;;;;;1.70;1.00;;;13.70;54.30;;;;;;4957655;29;20167;-86
2021/05/21 04:36:31;;;;;;;1.20;1.10;;;13.70;54.70;;;;;;4940285;29;20242;-88
2021/05/21 04:38:57;;;;;;;1.20;1.20;;;13.70;54.40;;;;;;4940438;29;20178;-88
2021/05/21 04:41:22;;;;;;;3.60;1.17;;;13.90;54.10;;;;;;4957411;29;20174;-87
2021/05/21 04:43:50;;;;;;;2.57;1.20;;;14.10;53.90;;;;;;4957398;29;20190;-87
2021/05/21 04:46:15;;;;;;;1.70;1.00;;;14.40;53.60;;;;;;4957289;29;20170;-87
2021/05/21 04:48:41;;;;;;;1.60;1.60;;;14.70;53.00;;;;;;4957713;29;20414;-87
2021/05/21 04:51:07;;;;;;;1.30;1.20;;;15.00;52.60;;;;;;4957164;28;20427;-87
2021/05/21 04:53:32;;;;;;;7.40;1.77;;;14.90;52.70;;;;;;4957301;28;20550;-86
2021/05/21 04:55:58;;;;;;;0.90;0.90;;;14.80;52.80;;;;;;4957259;29;20252;-87
2021/05/21 04:58:24;;;;;;;2.20;1.30;;;14.70;53.00;;;;;;4957693;29;20646;-88
2021/05/21 05:00:49;;;;;;;1.00;1.00;;;14.60;53.10;;;;;;4957527;29;20524;-88
2021/05/21 05:03:17;;;;;;;1.33;1.33;;;14.50;53.30;;;;;;4956911;29;20206;-87
2021/05/21 05:05:46;;;;;;;1.10;1.00;;;14.50;53.50;;;;;;4939413;29;20181;-87
2021/05/21 05:08:15;;;;;;;2.37;1.40;;;14.40;53.70;;;;;;4939956;29;20513;-87
2021/05/21 05:10:43;;;;;;;1.73;1.50;;;14.30;53.60;;;;;;4957052;28;20482;-87
2021/05/21 05:13:09;;;;;;;1.30;1.30;;;14.30;53.70;;;;;;4939570;29;20422;-88
2021/05/21 05:15:38;;;;;;;1.43;1.20;;;14.30;54.00;;;;;;4956857;29;20501;-86
2021/05/21 05:18:05;;;;;;;1.33;1.33;;;14.40;53.90;;;;;;4957231;28;20178;-87
2021/05/21 05:20:31;;;;;;;1.70;1.67;;;14.50;53.50;;;;;;4957384;29;20426;-87
2021/05/21 05:22:57;;;;;;;2.10;1.07;;;14.40;53.50;;;;;;4956590;29;20418;-87
2021/05/21 05:25:23;;;;;;;1.30;1.30;;;14.50;53.60;;;;;;4956926;28;20177;-87
2021/05/21 05:27:51;;;;;;;2.77;1.40;;;14.50;53.60;;;;;;4958017;28;20501;-87
2021/05/21 05:30:17;;;;;;;2.57;1.40;;;14.60;53.50;;;;;;4942508;29;20899;-88
2021/05/21 05:32:43;;;;;;;2.10;1.30;;;14.50;54.00;;;;;;4958098;29;20441;-86
2021/05/21 05:35:09;;;;;;;1.30;1.30;;;14.60;53.70;;;;;;4957834;28;20415;-85
2021/05/21 05:37:35;;;;;;;1.70;1.60;;;14.60;53.60;;;;;;4939894;29;20171;-87
2021/05/21 05:40:00;;;;;;;1.17;1.17;;;14.60;53.50;;;;;;4939470;29;20493;-87
2021/05/21 05:42:26;;;;;;;1.30;1.30;;;14.70;54.00;;;;;;4956275;28;20207;-87
2021/05/21 05:44:52;;;;;;;4.83;1.50;;;14.60;53.60;;;;;;4269911;28;10000711;-88
2021/05/21 05:47:18;;;;;;;2.10;1.40;;;14.50;53.90;;;;;;4954293;29;20600;-89
2021/05/21 05:49:43;;;;;;;3.10;1.10;;;14.60;53.60;;;;;;4955022;29;20497;-88
2021/05/21 05:52:09;;;;;;;1.83;1.30;;;14.60;53.80;;;;;;4954964;29;20167;-84
2021/05/21 05:54:35;;;;;;;2.87;1.30;;;14.60;53.70;;;;;;4937728;29;20166;-86
2021/05/21 05:57:00;;;;;;;0.90;0.90;;;14.80;54.10;;;;;;4936978;29;20182;-87
2021/05/21 05:59:27;;;;;;;6.10;4.60;;;14.60;53.90;;;;;;4975386;28;20224;-88
2021/05/21 06:01:54;;;;;;;1.30;1.30;;;14.60;53.90;;;;;;4997049;23;20242;-89
2021/05/21 06:04:19;;;;;;;2.30;1.50;;;14.80;54.60;;;;;;4976162;28;20428;-91
2021/05/21 06:06:51;;;;;;;1.57;1.37;;;15.80;56.20;;;;;;4996077;28;20409;-88
2021/05/21 06:09:41;;;;;;;2.57;1.43;;;14.70;53.80;;;;;;4977842;28;20488;-92
2021/05/21 06:12:07;;;;;;;2.17;1.97;;;14.60;53.70;;;;;;4976227;28;20898;-90
2021/05/21 06:14:33;;;;;;;2.67;2.47;;;17.20;57.80;;;;;;4975601;29;20427;-89
2021/05/21 06:19:35;;;;;;;1.40;1.40;;;14.90;53.50;;;;;;4972409;29;20210;-90
2021/05/21 06:22:23;;;;;;;1.60;1.50;;;15.30;56.10;;;;;;5003580;22;20498;-91
2021/05/21 06:24:51;;;;;;;1.37;1.37;;;15.00;53.40;;;;;;5091417;22;20426;-89
2021/05/21 06:27:24;;;;;;;3.37;1.40;;;15.10;55.10;;;;;;4995198;28;20457;-89
2021/05/21 06:29:52;;;;;;;2.07;1.97;;;15.20;54.20;;;;;;4995586;28;20469;-90
2021/05/21 06:32:20;;;;;;;2.30;1.73;;;15.10;53.00;;;;;;4994371;28;20483;-91
2021/05/21 06:34:46;;;;;;;1.23;1.20;;;14.70;53.40;;;;;;4993622;28;20417;-90
2021/05/21 06:37:34;;;;;;;;;;;;;;;;;;;;;
2021/05/21 06:40:11;;;;;;;3.90;1.47;;;15.90;53.00;;;;;;4898206;29;20763;-91
2021/05/21 06:42:37;;;;;;;4.67;1.70;;;16.00;54.00;;;;;;4956787;28;20437;-88
2021/05/21 06:45:07;;;;;;;1.70;1.70;;;15.80;53.10;;;;;;4973352;29;20414;-91
2021/05/21 06:47:36;;;;;;;1.13;1.03;;;15.70;52.70;;;;;;4954156;29;20513;-89
2021/05/21 06:50:07;;;;;;;3.10;1.93;;;17.70;54.10;;;;;;4953577;28;20484;-92
2021/05/21 06:52:33;;;;;;;1.40;1.30;;;16.20;51.90;;;;;;4974670;29;20428;-92
2021/05/21 06:55:00;;;;;;;2.17;1.50;;;17.90;52.60;;;;;;4950495;29;20465;-90
2021/05/21 06:57:38;;;;;;;3.17;1.97;;;17.20;51.90;;;;;;4954549;28;20465;-89
2021/05/21 07:00:09;;;;;;;1.40;1.40;;;16.30;51.20;;;;;;5008873;28;20420;-91
2021/05/21 07:02:40;;;;;;;2.13;1.53;;;15.00;50.50;;;;;;4993789;28;20428;-88
2021/05/21 07:05:16;;;;;;;5.73;2.03;;;16.70;52.80;;;;;;5158573;23;20477;-88
2021/05/21 07:07:42;;;;;;;1.47;1.47;;;15.20;51.90;;;;;;4965066;28;20439;-89
2021/05/21 07:10:11;;;;;;;7.33;1.80;;;14.20;52.50;;;;;;4975672;28;20489;-91
2021/05/21 07:30:21;;;;;;;3.13;2.30;;;15.30;52.40;;;;;;4994267;22;20485;-90
2021/05/21 07:32:52;;;;;;;2.27;2.13;;;15.20;52.80;;;;;;4994180;28;20421;-92
2021/05/21 07:35:20;;;;;;;1.93;1.70;;;14.90;52.70;;;;;;4973763;28;20409;-93
2021/05/21 07:37:46;;;;;;;5.17;1.90;;;15.50;51.40;;;;;;4971759;28;20471;-91
2021/05/21 07:40:17;;;;;;;2.27;2.03;;;17.00;49.80;;;;;;4991444;28;20453;-89
2021/05/21 07:42:43;;;;;;;6.80;1.97;;;16.10;50.20;;;;;;4975288;28;20473;-88
2021/05/21 07:48:27;;;;;;;7.43;2.17;;;15.90;49.00;;;;;;4995463;23;20491;-90
2021/05/21 07:51:19;;;;;;;2.00;1.90;;;16.20;51.40;;;;;;4993284;28;20484;-91
2021/05/21 07:54:00;;;;;;;5.80;1.73;;;15.20;51.10;;;;;;4957468;28;20444;-90
2021/05/21 07:56:29;;;;;;;5.17;2.00;;;14.90;50.00;;;;;;5128575;23;20515;-89
2021/05/21 07:58:55;;;;;;;3.97;2.10;;;13.50;50.30;;;;;;4956829;28;20478;-90
2021/05/21 08:01:20;;;;;;;4.30;2.27;;;15.00;52.30;;;;;;4939936;28;20455;-91
2021/05/21 08:03:49;;;;;;;4.60;2.50;;;13.50;49.30;;;;;;4956799;29;20478;-88
2021/05/21 08:06:18;;;;;;;3.23;1.77;;;15.30;51.00;;;;;;5254603;23;20293;-91
2021/05/21 08:11:38;;;;;;;4.03;1.90;;;18.30;46.00;;;;;;5093443;23;20497;-92
2021/05/21 08:14:11;;;;;;;10.23;2.20;;;18.60;42.00;;;;;;4979354;28;20400;-92
2021/05/21 08:16:38;;;;;;;3.60;2.10;;;17.60;41.10;;;;;;4980082;28;20441;-90
2021/05/21 08:19:32;;;;;;;3.00;2.20;;;16.90;42.40;;;;;;4996054;28;20432;-90
2021/05/21 08:22:18;;;;;;;;;;;;;;;;;;;;;
2021/05/21 08:25:22;;;;;;;2.00;1.77;;;17.00;42.90;;;;;;4996998;28;20441;-90
2021/05/21 08:28:06;;;;;;;5.47;1.70;;;16.70;41.80;;;;;;4980590;28;20428;-88
2021/05/21 08:30:33;;;;;;;2.83;2.20;;;17.80;45.30;;;;;;4960261;28;20457;-90
2021/05/21 08:32:59;;;;;;;2.37;1.40;;;17.60;45.70;;;;;;4980674;28;20508;-88
2021/05/21 08:35:28;;;;;;;3.63;2.00;;;15.60;45.30;;;;;;5114058;22;20634;-93
2021/05/21 08:46:12;;;;;;;2.57;1.73;;;18.60;37.30;;;;;;4992632;28;20469;-88
2021/05/21 08:51:33;;;;;;;3.67;1.60;;;19.50;34.50;;;;;;4997793;28;20515;-88
2021/05/21 08:54:05;;;;;;;5.30;2.23;;;20.80;36.10;;;;;;5205452;22;20478;-88
2021/05/21 08:56:43;;;;;;;9.23;2.03;;;19.60;32.10;;;;;;5078916;23;20507;-92
2021/05/21 08:59:15;;;;;;;2.10;1.70;;;20.90;34.00;;;;;;4975927;28;20469;-90
2021/05/21 09:01:53;;;;;;;3.90;1.47;;;20.00;33.50;;;;;;4293726;28;10000728;-91
2021/05/21 09:05:02;;;;;;;2.63;1.77;;;21.90;34.30;;;;;;4977817;28;20173;-90
2021/05/21 09:12:46;;;;;;;1.73;1.63;;;21.50;31.80;;;;;;5072347;22;20518;-92
2021/05/21 09:15:56;;;;;;;2.23;1.70;;;22.70;30.80;;;;;;5014034;28;20429;-90
2021/05/21 09:18:22;;;;;;;3.60;2.20;;;21.70;31.50;;;;;;5012264;28;20423;-89
2021/05/21 09:21:01;;;;;;;4.40;2.17;;;22.00;32.50;;;;;;4995413;28;20459;-90
2021/05/21 09:23:38;;;;;;;3.43;2.13;;;21.60;32.20;;;;;;4983822;28;20401;-90
2021/05/21 09:26:05;;;;;;;5.23;2.43;;;20.00;32.80;;;;;;4951694;29;20414;-90
2021/05/21 09:28:43;;;;;;;4.83;1.60;;;19.10;34.00;;;;;;4991169;28;20442;-90
2021/05/21 09:31:23;;;;;;;2.53;1.67;;;19.10;33.20;;;;;;4956853;28;20538;-89
2021/05/21 09:33:52;;;;;;;4.40;1.70;;;20.60;33.30;;;;;;4971459;28;20428;-91
2021/05/21 09:36:47;;;;;;;2.70;1.70;;;19.90;32.30;;;;;;4990470;28;20397;-90
2021/05/21 09:39:16;;;;;;;5.17;2.27;;;20.30;31.20;;;;;;4990280;28;20460;-88
2021/05/21 09:41:50;;;;;;;1.90;1.50;;;20.00;32.50;;;;;;4989558;28;20418;-91
2021/05/21 09:44:17;;;;;;;4.80;1.90;;;20.60;31.40;;;;;;4972679;28;20472;-90
2021/05/21 09:46:55;;;;;;;8.47;2.50;;;20.50;30.20;;;;;;4987076;28;20410;-90
2021/05/21 09:49:36;;;;;;;3.07;1.80;;;20.00;30.40;;;;;;4982654;28;20476;-92
2021/05/21 09:52:14;;;;;;;2.13;1.43;;;19.90;32.00;;;;;;4964609;28;20425;-89
2021/05/21 09:54:55;;;;;;;5.00;2.53;;;19.10;32.00;;;;;;4983204;28;20421;-91
2021/05/21 09:57:31;;;;;;;5.30;2.30;;;19.90;32.70;;;;;;4969060;28;20433;-91
2021/05/21 09:59:58;;;;;;;5.73;3.13;;;18.60;32.80;;;;;;4971994;28;20417;-89
2021/05/21 10:02:30;;;;;;;3.20;1.20;;;17.60;33.20;;;;;;4971047;28;20421;-90
2021/05/21 10:04:57;;;;;;;6.93;2.30;;;18.00;33.80;;;;;;4950054;28;20434;-89
2021/05/21 10:07:25;;;;;;;6.03;1.70;;;18.20;33.90;;;;;;4963397;28;20433;-90
2021/05/21 10:09:51;;;;;;;4.70;2.07;;;18.60;33.30;;;;;;4984289;28;20504;-89
2021/05/21 10:12:18;;;;;;;4.30;1.90;;;18.70;33.60;;;;;;4983388;28;20454;-90
2021/05/21 10:14:51;;;;;;;4.63;1.40;;;19.10;32.70;;;;;;4986053;28;20414;-89
2021/05/21 10:17:21;;;;;;;2.57;2.37;;;20.10;32.30;;;;;;4968169;28;20441;-91
2021/05/21 10:19:49;;;;;;;7.03;2.43;;;20.60;30.80;;;;;;4968590;28;20448;-91
2021/05/21 10:22:28;;;;;;;5.53;1.70;;;20.90;31.30;;;;;;4967720;28;20445;-91
2021/05/21 10:25:01;;;;;;;6.57;1.50;;;21.10;30.10;;;;;;4974404;28;20522;-89
2021/05/21 10:27:31;;;;;;;5.80;2.30;;;21.20;32.50;;;;;;4972078;28;20417;-91
2021/05/21 10:30:03;;;;;;;3.70;1.77;;;19.20;32.80;;;;;;4965114;29;20473;-89
2021/05/21 10:32:34;;;;;;;2.97;1.63;;;20.20;33.60;;;;;;5002993;28;20469;-90
2021/05/21 10:35:16;;;;;;;5.33;2.70;;;18.80;33.60;;;;;;4970748;28;20448;-92
2021/05/21 10:37:48;;;;;;;4.90;1.60;;;17.80;33.60;;;;;;4989522;28;20436;-89
2021/05/21 10:40:24;;;;;;;4.90;2.03;;;17.90;33.50;;;;;;4988590;28;20444;-87
2021/05/21 10:42:52;;;;;;;4.97;2.03;;;18.80;33.80;;;;;;4969202;28;20421;-85
2021/05/21 10:45:22;;;;;;;5.47;2.83;;;19.80;32.90;;;;;;4971828;28;20425;-92
2021/05/21 10:48:07;;;;;;;3.57;1.77;;;20.30;31.60;;;;;;4949820;29;20439;-89
2021/05/21 10:50:38;;;;;;;5.50;2.47;;;22.70;31.40;;;;;;4619640;28;10000524;-87
2021/05/21 10:53:06;;;;;;;2.53;2.03;;;22.70;29.30;;;;;;4956630;29;20531;-89
2021/05/21 10:55:56;;;;;;;4.00;1.83;;;21.90;29.70;;;;;;4940195;28;20437;-88
2021/05/21 10:58:35;;;;;;;6.47;1.70;;;22.00;29.50;;;;;;4972151;28;20408;-90
2021/05/21 11:01:13;;;;;;;2.60;2.23;;;22.00;29.30;;;;;;4976690;28;20413;-89
2021/05/21 11:04:02;;;;;;;4.43;2.07;;;21.40;29.90;;;;;;4959231;28;20453;-88
2021/05/21 11:06:42;;;;;;;4.53;1.83;;;20.60;28.70;;;;;;4979146;28;20432;-90
2021/05/21 11:09:14;;;;;;;5.83;5.20;;;23.80;30.10;;;;;;4978650;28;20456;-87
2021/05/21 11:12:03;;;;;;;5.20;2.60;;;22.50;29.00;;;;;;4976474;28;20668;-88
2021/05/21 11:14:33;;;;;;;8.10;3.83;;;22.00;29.00;;;;;;4975058;28;20414;-89
2021/05/21 11:17:22;;;;;;;2.87;2.03;;;21.00;29.40;;;;;;4985305;28;20401;-89
2021/05/21 11:20:02;;;;;;;3.30;1.40;;;20.80;30.00;;;;;;4986003;28;20428;-89
2021/05/21 11:22:38;;;;;;;8.50;2.53;;;21.10;30.00;;;;;;4987343;28;20472;-89
2021/05/21 11:25:09;;;;;;;2.10;1.50;;;20.70;31.30;;;;;;4969975;28;20804;-90
2021/05/21 11:27:36;;;;;;;1.60;1.50;;;20.40;31.00;;;;;;4986199;28;20496;-89
2021/05/21 11:30:18;;;;;;;3.43;1.90;;;20.70;31.00;;;;;;4985361;28;20496;-90
2021/05/21 11:32:47;;;;;;;2.83;1.90;;;20.80;29.80;;;;;;4966495;28;20421;-88
2021/05/21 11:35:13;;;;;;;12.57;2.10;;;20.50;30.80;;;;;;4975067;28;20460;-88
2021/05/21 11:37:56;;;;;;;7.60;1.80;;;20.80;31.00;;;;;;4991159;28;20414;-88
2021/05/21 11:40:30;;;;;;;3.70;2.07;;;20.60;29.90;;;;;;4953115;29;20430;-90
2021/05/21 11:42:59;;;;;;;2.13;1.90;;;22.00;29.30;;;;;;4956320;29;20440;-89
2021/05/21 11:45:27;;;;;;;3.13;1.80;;;22.40;29.30;;;;;;4958197;28;20426;-88
2021/05/21 11:47:56;;;;;;;3.03;1.37;;;22.20;29.20;;;;;;4982794;28;20437;-92
2021/05/21 11:50:38;;;;;;;4.57;1.50;;;22.80;28.70;;;;;;4992915;28;20468;-89
2021/05/21 11:53:14;;;;;;;5.20;2.67;;;23.00;28.60;;;;;;4992781;28;20405;-93
2021/05/21 11:55:50;;;;;;;4.00;1.87;;;22.80;28.30;;;;;;4993912;28;20399;-88
2021/05/21 11:58:33;;;;;;;2.60;1.90;;;22.00;29.20;;;;;;5009830;28;21003;-90
2021/05/21 12:01:10;;;;;;;2.33;2.13;;;22.50;28.70;;;;;;4959482;28;20401;-91
2021/05/21 12:03:41;;;;;;;8.67;2.07;;;23.20;29.50;;;;;;4979943;28;20483;-93
2021/05/21 12:06:07;;;;;;;5.50;2.17;;;23.80;28.20;;;;;;4977969;28;20425;-91
2021/05/21 12:08:33;;;;;;;9.67;2.10;;;22.30;27.70;;;;;;4962605;28;20420;-91
2021/05/21 12:11:01;;;;;;;8.03;2.70;;;23.00;28.60;;;;;;4992678;28;20243;-88
2021/05/21 12:13:30;;;;;;;7.20;2.20;;;23.60;29.10;;;;;;4974186;28;20188;-89
2021/05/21 12:16:27;;;;;;;2.83;1.70;;;22.40;28.30;;;;;;4973648;28;20425;-90
2021/05/21 12:18:55;;;;;;;7.60;1.83;;;21.10;28.10;;;;;;4971408;28;20426;-93
2021/05/21 12:21:38;;;;;;;2.97;1.53;;;20.60;29.10;;;;;;4974298;28;20425;-87
2021/05/21 12:24:09;;;;;;;4.47;2.13;;;20.20;29.20;;;;;;4990543;28;20425;-92
2021/05/21 12:26:43;;;;;;;10.10;2.60;;;21.20;29.60;;;;;;4974739;28;20418;-91
2021/05/21 12:29:42;;;;;;;7.60;2.13;;;20.50;29.30;;;;;;4972170;28;20499;-90
2021/05/21 12:32:21;;;;;;;2.10;1.43;;;22.10;29.70;;;;;;4963400;28;20482;-89
2021/05/21 12:34:51;;;;;;;3.87;2.00;;;22.40;30.20;;;;;;4973258;28;20409;-93
2021/05/21 12:37:22;;;;;;;2.80;1.67;;;22.80;30.90;;;;;;4970594;28;20449;-93
2021/05/21 12:39:50;;;;;;;6.50;2.60;;;22.70;31.20;;;;;;4971633;28;20417;-90
2021/05/21 12:42:22;;;;;;;1.70;1.70;;;22.20;31.40;;;;;;4987032;28;20413;-90
2021/05/21 12:44:56;;;;;;;4.00;2.10;;;21.60;28.80;;;;;;4956110;28;20912;-88
2021/05/21 12:47:23;;;;;;;3.13;1.43;;;22.00;31.50;;;;;;4974404;28;20421;-90
2021/05/21 12:49:51;;;;;;;4.43;2.07;;;21.80;29.90;;;;;;4968593;28;20910;-88
2021/05/21 12:52:17;;;;;;;2.13;1.40;;;20.60;28.30;;;;;;4968438;28;20414;-91
2021/05/21 12:54:53;;;;;;;11.83;2.93;;;20.60;29.80;;;;;;4970360;28;20425;-88
2021/05/21 12:57:26;;;;;;;2.00;1.70;;;20.70;29.90;;;;;;4971367;28;20497;-91
2021/05/21 13:00:07;;;;;;;;;;;;;;;;;;;;;
2021/05/21 13:02:36;;;;;;;5.37;1.77;;;21.60;29.40;;;;;;4990397;28;20444;-87
2021/05/21 13:05:22;;;;;;;3.60;1.90;;;23.50;30.00;;;;;;4972894;28;20413;-89
2021/05/21 13:08:06;;;;;;;3.30;2.13;;;23.30;28.50;;;;;;4990694;28;20409;-88
2021/05/21 13:10:58;;;;;;;4.90;2.43;;;23.40;29.60;;;;;;4969166;28;21019;-92
2021/05/21 13:13:57;;;;;;;4.90;2.63;;;23.00;27.50;;;;;;4956206;29;20539;-92
2021/05/21 13:16:54;;;;;;;3.70;1.37;;;23.00;28.40;;;;;;4956604;29;20437;-91
2021/05/21 13:19:58;;;;;;;1.40;1.30;;;23.30;28.70;;;;;;4973457;29;20409;-90
2021/05/21 13:22:32;;;;;;;6.47;1.50;;;25.50;28.50;;;;;;4954067;29;20437;-89
2021/05/21 13:25:33;;;;;;;1.93;1.30;;;23.00;29.70;;;;;;4941327;29;20449;-90
2021/05/21 13:28:36;;;;;;;;;;;;;;;;;;;;;
2021/05/21 13:31:03;;;;;;;6.10;2.27;;;20.50;28.40;;;;;;4951824;29;20633;-88
2021/05/21 13:33:46;;;;;;;2.20;1.30;;;20.80;29.50;;;;;;4958781;28;20441;-89
2021/05/21 13:36:11;;;;;;;2.80;1.50;;;20.70;30.10;;;;;;4953966;29;20449;-90
2021/05/21 13:38:46;;;;;;;4.60;1.80;;;20.40;29.80;;;;;;4961539;29;20414;-89
2021/05/21 13:41:11;;;;;;;11.60;3.03;;;20.60;31.00;;;;;;4963751;29;20166;-89
2021/05/21 13:43:37;;;;;;;2.90;2.50;;;21.70;31.70;;;;;;4959019;29;20416;-89
2021/05/21 13:46:02;;;;;;;7.30;2.83;;;21.80;29.80;;;;;;4958169;29;20169;-90
2021/05/21 13:48:28;;;;;;;11.97;3.80;;;21.90;29.70;;;;;;4941321;29;20175;-87
2021/05/21 13:50:54;;;;;;;1.60;1.57;;;20.80;29.70;;;;;;4958115;29;20206;-88